Aérodrome :
LOGIN :

S'inscrire | Disclaimer

   EN    FR    IT 

 










Légende :    VFR   VFR Marginal   IFR   IFR Intensif   IFR Très Intensif
Visi : 
Plafond : 
>= 8 km
>= 3000ft
5 à 8 km
1000 à 3000 ft
1500m à 5 km
500 à 1000 ft
800 à 1500m
200 à 500 ft
< 800m
< 200 ft
Symboles :   Orages  Brouillard  Fortes neiges  Fortes précipitations  Vent > 20 kt
SIGMETs :   Divers  Orages  Givrage  Turbulence  Onde Orograph.  Cendres Volcan.






- Altitude de l'aérodrome : 100 ft


EBDT - Schaffen

DERNIER METAR :
  • 230255Z AUTO 04003KT 8000 BKN085/// OVC100/// 11/10 Q1019 BLU

METARs EXPIRÉS :
  • 230225Z AUTO 04003KT 7000 FEW075/// BKN095/// OVC110/// 11/10 Q1020 WHT
  • 230155Z AUTO 04004KT 7000 OVC085/// 11/10 Q1020 WHT
  • 230133Z AUTO 02004KT 7000 BKN090/// BKN100/// 11/10 Q1021 WHT
  • 230115Z AUTO 01003KT 7000 BKN090/// BKN100/// 11/10 Q1021 WHT
  • 230055Z AUTO 04003KT 9999 BKN090/// 11/10 Q1021 BLU
  • 230051Z AUTO 05003KT 9999 OVC095/// 11/10 Q1021 BLU
  • 230038Z AUTO 02003KT 7000 BKN095/// BKN110/// 11/10 Q1021 WHT
  • 230025Z AUTO 36003KT 8000 OVC100/// 11/10 Q1021 BLU

TAF TAF EBDT
Valide du 22 à 19h jusqu'au 23 à 07h UTC


221541Z 2219/2307 13003KT 9999 FEW015 BKN030
BECMG 2220/2221 05002KT FEW032
BECMG 2204/2206 07007KT 7000 HZ BKN090



MET'MAP, la Météo Aéronautique d'un coup d'oeil ! - Copyright ORBIFLY Décembre 2007 - Disclaimer

ORBIFLY MET'MAP TEAM :

Programmation & Développement : Alexandra Zaïnal
Conception & Développement : Baudouin d'Aumeries
Co-Programmation & Développement : Marc-Olivier Méhu
Soutien technique & logistique : Manuel Goepfert

Contact : metmap@orbifly.com




SOURCES & CREDITS :

   NOAA